Time;durP1;ratioP1;P1;durP2;ratioP2;P2;SDS_P1;SDS_P2;PMS_P1;PMS_P2;Temp;Humidity;BMP_temperature;BMP_pressure;BME280_temperature;BME280_humidity;BME280_pressure;Samples;Min_cycle;Max_cycle;Signal;HPM_P1;HPM_P2
2023/10/25 00:00:03;;;;;;;;;;;;;;;-144.99;100.00;52509.25;5109202;28;19931;-74
2023/10/25 00:02:30;;;;;;;;;;;;;;;-144.99;100.00;52499.06;5114402;28;19970;-75
2023/10/25 00:04:56;;;;;;;;;;;;;;;-144.99;100.00;52517.41;5119949;28;19924;-74
2023/10/25 00:07:23;;;;;;;;;;;;;;;-144.99;100.00;52509.25;5113464;27;19981;-71
2023/10/25 00:09:51;;;;;;;;;;;;;;;-144.99;100.00;52513.31;5106850;28;19962;-76
2023/10/25 00:12:17;;;;;;;;;;;;;;;-144.99;100.00;52513.31;5100612;28;19931;-77
2023/10/25 00:14:44;;;;;;;;;;;;;;;-144.99;100.00;52480.72;5107067;28;19976;-76
2023/10/25 00:17:10;;;;;;;;;;;;;;;-144.99;100.00;52533.69;5108601;28;20392;-76
2023/10/25 00:19:36;;;;;;;;;;;;;;;-144.99;100.00;52494.97;5100248;28;19924;-76
2023/10/25 00:22:03;;;;;;;;;;;;;;;-144.99;100.00;52488.84;5113187;28;20399;-77
2023/10/25 00:24:29;;;;;;;;;;;;;;;-144.99;100.00;52513.31;5103761;28;19927;-76
2023/10/25 00:26:57;;;;;;;;;;;;;;;-144.99;100.00;52480.72;5108342;28;19931;-75
2023/10/25 00:29:24;;;;;;;;;;;;;;;-144.99;100.00;52501.09;5109434;27;19932;-75
2023/10/25 00:31:50;;;;;;;;;;;;;;;-144.99;100.00;52513.31;5106999;28;19934;-75
2023/10/25 00:34:17;;;;;;;;;;;;;;;-144.99;100.00;52488.84;5110564;28;19967;-75
2023/10/25 00:36:43;;;;;;;;;;;;;;;-144.99;100.00;52525.56;5100180;28;19924;-76
2023/10/25 00:39:10;;;;;;;;;;;;;;;-144.99;100.00;52541.84;5112565;28;19927;-76
2023/10/25 00:41:36;;;;;;;;;;;;;;;-144.99;100.00;52541.84;5105502;28;20328;-74
2023/10/25 00:44:04;;;;;;;;;;;;;;;-144.99;100.00;52472.56;5109268;28;19981;-74
2023/10/25 00:46:31;;;;;;;;;;;;;;;-144.99;100.00;52488.84;5129879;28;19934;-74
2023/10/25 00:48:59;;;;;;;;;;;;;;;-144.99;100.00;52533.69;5121049;28;20300;-75
2023/10/25 00:51:27;;;;;;;;;;;;;;;-144.99;100.00;52501.09;5114132;28;19934;-74
2023/10/25 00:53:55;;;;;;;;;;;;;;;-144.99;100.00;52505.16;5110095;28;20030;-74
2023/10/25 00:56:23;;;;;;;;;;;;;;;-144.99;100.00;52488.84;5112714;28;19955;-74
2023/10/25 00:58:50;;;;;;;;;;;;;;;-144.99;100.00;52521.47;5109601;27;20339;-74
2023/10/25 01:01:19;;;;;;;;;;;;;;;-144.99;100.00;52517.41;5112410;28;20008;-74
2023/10/25 01:03:46;;;;;;;;;;;;;;;-144.99;100.00;52517.41;5098078;27;19977;-77
2023/10/25 01:06:13;;;;;;;;;;;;;;;-144.99;100.00;52480.72;5102953;27;20455;-74
2023/10/25 01:08:40;;;;;;;;;;;;;;;-144.99;100.00;52517.41;5113830;28;19967;-80
2023/10/25 01:11:06;;;;;;;;;;;;;;;-144.99;100.00;52505.16;5107715;27;19924;-77
2023/10/25 01:13:33;;;;;;;;;;;;;;;-144.99;100.00;52507.19;5102919;28;19928;-76
2023/10/25 01:16:00;;;;;;;;;;;;;;;-144.99;100.00;52505.16;5099073;28;19979;-77
2023/10/25 01:18:28;;;;;;;;;;;;;;;-144.99;100.00;52482.75;5103832;28;19928;-76
2023/10/25 01:20:54;;;;;;;;;;;;;;;-144.99;100.00;52497.00;5107095;27;19968;-78
2023/10/25 01:23:22;;;;;;;;;;;;;;;-144.99;100.00;52501.09;5118347;27;20008;-77
2023/10/25 01:25:49;;;;;;;;;;;;;;;-144.99;100.00;52517.41;5112898;28;19911;-80
2023/10/25 01:28:16;;;;;;;;;;;;;;;-144.99;100.00;52503.13;5128928;27;19916;-80
2023/10/25 01:30:42;;;;;;;;;;;;;;;-144.99;100.00;52545.94;5107970;28;19988;-79
2023/10/25 01:33:09;;;;;;;;;;;;;;;-144.99;100.00;52539.81;5106043;28;19924;-78
2023/10/25 01:35:35;;;;;;;;;;;;;;;-144.99;100.00;52501.09;5105921;28;19924;-79
2023/10/25 01:38:02;;;;;;;;;;;;;;;-144.99;100.00;52533.69;5103746;28;20043;-78
2023/10/25 01:40:30;;;;;;;;;;;;;;;-144.99;100.00;52533.69;5102269;28;19924;-78
2023/10/25 01:42:57;;;;;;;;;;;;;;;-144.99;100.00;52486.81;5099646;28;20276;-79
2023/10/25 01:45:24;;;;;;;;;;;;;;;-144.99;100.00;52497.00;5112204;28;19927;-79
2023/10/25 01:47:51;;;;;;;;;;;;;;;-144.99;100.00;52486.81;5105701;28;19930;-77
2023/10/25 01:50:18;;;;;;;;;;;;;;;-144.99;100.00;52554.09;5110337;28;20339;-76
2023/10/25 01:52:45;;;;;;;;;;;;;;;-144.99;100.00;52521.47;5101637;28;19931;-76
2023/10/25 01:55:11;;;;;;;;;;;;;;;-144.99;100.00;52541.84;5107535;28;19923;-75
2023/10/25 01:57:39;;;;;;;;;;;;;;;-144.99;100.00;52507.19;5105844;28;19968;-74
2023/10/25 02:00:07;;;;;;;;;;;;;;;-144.99;100.00;52497.00;5105559;28;19977;-75
2023/10/25 02:02:34;;;;;;;;;;;;;;;-144.99;100.00;52521.47;5095603;28;20015;-74
2023/10/25 02:05:00;;;;;;;;;;;;;;;-144.99;100.00;52552.03;5097568;28;19924;-75
2023/10/25 02:07:27;;;;;;;;;;;;;;;-144.99;100.00;52519.44;5112025;28;19952;-76
2023/10/25 02:09:53;;;;;;;;;;;;;;;-144.99;100.00;52521.47;5114746;28;19932;-75
2023/10/25 02:12:20;;;;;;;;;;;;;;;-144.99;100.00;52517.41;5109606;28;20299;-74
2023/10/25 02:14:48;;;;;;;;;;;;;;;-144.99;100.00;52517.41;5101654;28;19989;-77
2023/10/25 02:17:14;;;;;;;;;;;;;;;-144.99;100.00;52476.63;5096124;28;19982;-75
2023/10/25 02:19:41;;;;;;;;;;;;;;;-144.99;100.00;52517.41;5099984;28;20193;-75
2023/10/25 02:22:08;;;;;;;;;;;;;;;-144.99;100.00;52499.06;5102267;28;19931;-74
2023/10/25 02:24:34;;;;;;;;;;;;;;;-144.99;100.00;52497.00;5090427;28;19970;-75
2023/10/25 02:27:00;;;;;;;;;;;;;;;-144.99;100.00;52525.56;5107065;28;20015;-76
2023/10/25 02:29:27;;;;;;;;;;;;;;;-144.99;100.00;52517.41;5099881;28;19924;-80
2023/10/25 02:31:55;;;;;;;;;;;;;;;-144.99;100.00;52550.00;5106417;28;19927;-80
2023/10/25 02:34:21;;;;;;;;;;;;;;;-144.99;100.00;52523.50;5111924;28;20338;-80
2023/10/25 02:36:48;;;;;;;;;;;;;;;-144.99;100.00;52513.31;5111606;28;20027;-81
2023/10/25 02:42:15;;;;;;;;;;;;;;;-144.99;100.00;52545.94;5100527;28;19994;-82
2023/10/25 02:44:42;;;;;;;;;;;;;;;-144.99;100.00;52509.25;5109888;28;19923;-82
2023/10/25 02:47:10;;;;;;;;;;;;;;;-144.99;100.00;52550.00;5111666;28;19913;-82
2023/10/25 02:49:36;;;;;;;;;;;;;;;-144.99;100.00;52554.09;5128538;28;19908;-82
2023/10/25 02:52:03;;;;;;;;;;;;;;;-144.99;100.00;52497.00;5102139;28;19936;-82
2023/10/25 02:54:29;;;;;;;;;;;;;;;-144.99;100.00;52503.13;5110364;28;20395;-82
2023/10/25 02:56:56;;;;;;;;;;;;;;;-144.99;100.00;52537.78;5104894;28;20455;-82
2023/10/25 02:59:22;;;;;;;;;;;;;;;-144.99;100.00;52509.25;5114181;28;19967;-82
2023/10/25 03:01:49;;;;;;;;;;;;;;;-144.99;100.00;52533.69;5114103;28;20126;-82
2023/10/25 03:04:17;;;;;;;;;;;;;;;-144.99;100.00;52513.31;5123652;27;20428;-81
2023/10/25 03:06:43;;;;;;;;;;;;;;;-144.99;100.00;52545.94;5106848;28;20053;-82
2023/10/25 03:09:11;;;;;;;;;;;;;;;-144.99;100.00;52533.69;5103325;28;19924;-82
2023/10/25 03:11:37;;;;;;;;;;;;;;;-144.99;100.00;52507.19;5103085;28;19969;-83
2023/10/25 03:14:04;;;;;;;;;;;;;;;-144.99;100.00;52458.28;5115736;28;19974;-83
2023/10/25 03:16:30;;;;;;;;;;;;;;;-144.99;100.00;52525.56;5115268;28;19950;-80
2023/10/25 03:18:57;;;;;;;;;;;;;;;-144.99;100.00;52509.25;5117860;28;19924;-81
2023/10/25 03:21:25;;;;;;;;;;;;;;;-144.99;100.00;52529.63;5118960;28;19928;-80
2023/10/25 03:23:52;;;;;;;;;;;;;;;-144.99;100.00;52525.56;5119303;28;19946;-81
2023/10/25 03:26:18;;;;;;;;;;;;;;;-144.99;100.00;52509.25;5112919;28;19927;-77
2023/10/25 03:28:45;;;;;;;;;;;;;;;-144.99;100.00;52513.31;5120565;28;19919;-78
2023/10/25 03:31:12;;;;;;;;;;;;;;;-144.99;100.00;52499.06;5113207;28;19954;-77
2023/10/25 03:33:38;;;;;;;;;;;;;;;-144.99;100.00;52533.69;5110294;27;19924;-76
2023/10/25 03:36:05;;;;;;;;;;;;;;;-144.99;100.00;52468.47;5107689;27;19982;-76
2023/10/25 03:38:34;;;;;;;;;;;;;;;-144.99;100.00;52529.63;5108372;28;19924;-76
2023/10/25 03:41:02;;;;;;;;;;;;;;;-144.99;100.00;52533.69;5094331;28;19924;-75
2023/10/25 03:43:28;;;;;;;;;;;;;;;-144.99;100.00;52513.31;5103377;28;19924;-75
2023/10/25 03:45:55;;;;;;;;;;;;;;;-144.99;100.00;52515.34;5112981;28;19980;-77
2023/10/25 03:48:21;;;;;;;;;;;;;;;-144.99;100.00;52545.94;5110220;28;20187;-77
2023/10/25 03:50:48;;;;;;;;;;;;;;;-144.99;100.00;52533.69;5112586;28;20596;-76
2023/10/25 03:53:14;;;;;;;;;;;;;;;-144.99;100.00;52507.19;5108827;28;20019;-76
2023/10/25 03:55:42;;;;;;;;;;;;;;;-144.99;100.00;52533.69;5109728;28;19930;-76
2023/10/25 03:58:09;;;;;;;;;;;;;;;-144.99;100.00;52525.56;5104793;28;20403;-72
2023/10/25 04:00:35;;;;;;;;;;;;;;;-144.99;100.00;52488.84;5093729;28;19928;-76
2023/10/25 04:03:02;;;;;;;;;;;;;;;-144.99;100.00;52554.09;5112161;28;20014;-75
2023/10/25 04:05:28;;;;;;;;;;;;;;;-144.99;100.00;52541.84;5096133;28;19970;-76
2023/10/25 04:07:55;;;;;;;;;;;;;;;-144.99;100.00;52513.31;5117624;28;19998;-78
2023/10/25 04:10:21;;;;;;;;;;;;;;;-144.99;100.00;52517.41;5116151;28;19988;-75
2023/10/25 04:12:49;;;;;;;;;;;;;;;-144.99;100.00;52521.47;5104930;28;20038;-75
2023/10/25 04:15:16;;;;;;;;;;;;;;;-144.99;100.00;52517.41;5102698;28;20015;-74
2023/10/25 04:17:42;;;;;;;;;;;;;;;-144.99;100.00;52517.41;5106933;28;19976;-76
2023/10/25 04:20:09;;;;;;;;;;;;;;;-144.99;100.00;52519.44;5107809;28;19962;-76
2023/10/25 04:22:36;;;;;;;;;;;;;;;-144.99;100.00;52517.41;5102284;28;19973;-76
2023/10/25 04:25:03;;;;;;;;;;;;;;;-144.99;100.00;52537.78;5113076;28;19959;-70
2023/10/25 04:27:30;;;;;;;;;;;;;;;-144.99;100.00;52545.94;5103199;28;20024;-73
2023/10/25 04:29:58;;;;;;;;;;;;;;;-144.99;100.00;52525.56;5100918;28;19928;-73
2023/10/25 04:32:24;;;;;;;;;;;;;;;-144.99;100.00;52521.47;5094933;28;19928;-73
2023/10/25 04:34:51;;;;;;;;;;;;;;;-144.99;100.00;52501.09;5105363;28;19928;-72
2023/10/25 04:37:18;;;;;;;;;;;;;;;-144.99;100.00;52517.41;5094694;28;20018;-73
2023/10/25 04:39:44;;;;;;;;;;;;;;;-144.99;100.00;52521.47;5111047;28;20022;-73
2023/10/25 04:42:11;;;;;;;;;;;;;;;-144.99;100.00;52521.47;5096658;28;19924;-73
2023/10/25 04:44:37;;;;;;;;;;;;;;;-144.99;100.00;52547.97;5097539;28;20342;-73
2023/10/25 04:47:05;;;;;;;;;;;;;;;-144.99;100.00;52509.25;5105474;28;19932;-73
2023/10/25 04:49:32;;;;;;;;;;;;;;;-144.99;100.00;52507.19;5129261;28;19911;-74
2023/10/25 04:51:58;;;;;;;;;;;;;;;-144.99;100.00;52537.78;5128975;28;19923;-73
2023/10/25 04:54:25;;;;;;;;;;;;;;;-144.99;100.00;52554.09;5106118;27;19956;-73
2023/10/25 04:56:51;;;;;;;;;;;;;;;-144.99;100.00;52578.53;5106218;27;19959;-73
2023/10/25 04:59:18;;;;;;;;;;;;;;;-144.99;100.00;52541.84;5113309;28;19962;-70
2023/10/25 05:01:44;;;;;;;;;;;;;;;-144.99;100.00;52525.56;5095347;28;20304;-72
2023/10/25 05:04:12;;;;;;;;;;;;;;;-144.99;100.00;52545.94;5101460;28;19977;-72
2023/10/25 05:06:39;;;;;;;;;;;;;;;-144.99;100.00;52570.38;5103137;27;19985;-72
2023/10/25 05:09:06;;;;;;;;;;;;;;;-144.99;100.00;52519.44;5105701;28;19994;-72
2023/10/25 05:11:34;;;;;;;;;;;;;;;-144.99;100.00;52519.44;5101388;28;20020;-72
2023/10/25 05:14:01;;;;;;;;;;;;;;;-144.99;100.00;52550.00;5104579;28;19983;-72
2023/10/25 05:16:28;;;;;;;;;;;;;;;-144.99;100.00;52505.16;5106638;27;20385;-70
2023/10/25 05:18:55;;;;;;;;;;;;;;;-144.99;100.00;52521.47;4393364;28;10000732;-71
2023/10/25 05:21:25;;;;;;;;;;;;;;;-144.99;100.00;52529.63;5097043;28;21318;-71
2023/10/25 05:23:52;;;;;;;;;;;;;;;-144.99;100.00;52554.09;5106648;28;20030;-70
2023/10/25 05:26:19;;;;;;;;;;;;;;;-144.99;100.00;52513.31;5108419;28;19924;-71
2023/10/25 05:28:46;;;;;;;;;;;;;;;-144.99;100.00;52545.94;5102528;28;20003;-70
2023/10/25 05:31:17;;;;;;;;;;;;;;;-144.99;100.00;52550.00;5121694;28;19979;-71
2023/10/25 05:33:44;;;;;;;;;;;;;;;-144.99;100.00;52537.78;5115256;28;19925;-71
2023/10/25 05:36:11;;;;;;;;;;;;;;;-144.99;100.00;52533.69;5120128;28;19934;-72
2023/10/25 05:38:39;;;;;;;;;;;;;;;-144.99;100.00;52529.63;5108529;28;19991;-69
2023/10/25 05:41:06;;;;;;;;;;;;;;;-144.99;100.00;52552.03;5122879;28;20308;-70
2023/10/25 05:43:37;;;;;;;;;;;;;;;-144.99;100.00;52525.56;5128456;28;19992;-70
2023/10/25 05:46:03;;;;;;;;;;;;;;;-144.99;100.00;52492.94;5116744;28;19939;-70
2023/10/25 05:48:30;;;;;;;;;;;;;;;-144.99;100.00;52505.16;5118208;28;19934;-70
2023/10/25 05:51:01;;;;;;;;;;;;;;;-144.99;100.00;52521.47;5119084;27;19932;-70
2023/10/25 05:53:28;;;;;;;;;;;;;;;-144.99;100.00;52533.69;5126602;28;19934;-70
2023/10/25 05:55:56;;;;;;;;;;;;;;;-144.99;100.00;52529.63;5123876;28;19912;-70
2023/10/25 05:58:23;;;;;;;;;;;;;;;-144.99;100.00;52562.25;5125196;28;20173;-69
2023/10/25 06:00:52;;;;;;;;;;;;;;;-144.99;100.00;52550.00;5113863;28;19934;-70
2023/10/25 06:03:20;;;;;;;;;;;;;;;-144.99;100.00;52505.16;5127333;28;19928;-70
2023/10/25 06:05:50;;;;;;;;;;;;;;;-144.99;100.00;52529.63;5109608;28;20015;-70
2023/10/25 06:08:16;;;;;;;;;;;;;;;-144.99;100.00;52515.34;5108238;28;19923;-71
2023/10/25 06:10:43;;;;;;;;;;;;;;;-144.99;100.00;52525.56;5110016;28;19976;-70
2023/10/25 06:13:12;;;;;;;;;;;;;;;-144.99;100.00;52533.69;5115252;27;19934;-69
2023/10/25 06:15:39;;;;;;;;;;;;;;;-144.99;100.00;52550.00;5123859;28;19923;-71
2023/10/25 06:18:07;;;;;;;;;;;;;;;-144.99;100.00;52513.31;5117644;28;19932;-71
2023/10/25 06:20:34;;;;;;;;;;;;;;;-144.99;100.00;52537.78;5123572;28;19924;-70
2023/10/25 06:23:00;;;;;;;;;;;;;;;-144.99;100.00;52558.16;5116734;27;20448;-71
2023/10/25 06:25:27;;;;;;;;;;;;;;;-144.99;100.00;52525.56;5117030;28;19939;-70
2023/10/25 06:27:56;;;;;;;;;;;;;;;-144.99;100.00;52533.69;5118068;28;19964;-70
2023/10/25 06:30:24;;;;;;;;;;;;;;;-144.99;100.00;52552.03;5109600;28;19928;-70
2023/10/25 06:32:51;;;;;;;;;;;;;;;-144.99;100.00;52501.09;5111938;28;19966;-69
2023/10/25 06:35:17;;;;;;;;;;;;;;;-144.99;100.00;52513.31;5103515;27;19934;-70
2023/10/25 06:37:44;;;;;;;;;;;;;;;-144.99;100.00;52541.84;5100088;28;19959;-69
2023/10/25 06:40:11;;;;;;;;;;;;;;;-144.99;100.00;52525.56;5099430;28;19975;-69
2023/10/25 06:42:38;;;;;;;;;;;;;;;-144.99;100.00;52525.56;5103505;28;19924;-70
2023/10/25 06:45:05;;;;;;;;;;;;;;;-144.99;100.00;52507.19;5110396;28;19928;-70
2023/10/25 06:47:33;;;;;;;;;;;;;;;-144.99;100.00;52529.63;5113701;28;19923;-70
2023/10/25 06:50:00;;;;;;;;;;;;;;;-144.99;100.00;52533.69;5101961;28;19924;-69
2023/10/25 06:52:27;;;;;;;;;;;;;;;-144.99;100.00;52521.47;5112198;28;19927;-69
2023/10/25 06:54:54;;;;;;;;;;;;;;;-144.99;100.00;52529.63;4761767;28;9999948;-70
2023/10/25 06:57:20;;;;;;;;;;;;;;;-144.99;100.00;52486.81;5105435;28;19924;-69
2023/10/25 06:59:47;;;;;;;;;;;;;;;-144.99;100.00;52472.56;5107603;28;19935;-69
2023/10/25 07:02:30;;;;;;;;;;;;;;;-144.99;100.00;52523.50;5104300;28;19924;-70
2023/10/25 07:05:01;;;;;;;;;;;;;;;-144.99;100.00;52554.09;5115496;28;20299;-70
2023/10/25 07:07:31;;;;;;;;;;;;;;;-144.99;100.00;52492.94;5114553;28;19927;-70
2023/10/25 07:09:58;;;;;;;;;;;;;;;-144.99;100.00;52484.78;5108596;28;19991;-70
2023/10/25 07:12:24;;;;;;;;;;;;;;;-144.99;100.00;52488.84;5109437;28;20266;-70
2023/10/25 07:14:51;;;;;;;;;;;;;;;-144.99;100.00;52484.78;5114476;28;19991;-69
2023/10/25 07:17:17;;;;;;;;;;;;;;;-144.99;100.00;52492.94;5100633;28;19927;-70
2023/10/25 07:19:46;;;;;;;;;;;;;;;-144.99;100.00;52484.78;5111657;28;19925;-69
2023/10/25 07:22:14;;;;;;;;;;;;;;;-144.99;100.00;52499.06;5107413;28;19927;-69
2023/10/25 07:24:40;;;;;;;;;;;;;;;-144.99;100.00;52515.34;5106060;28;19924;-70
2023/10/25 07:27:07;;;;;;;;;;;;;;;-144.99;100.00;52513.31;5109118;28;19963;-70
2023/10/25 07:29:36;;;;;;;;;;;;;;;-144.99;100.00;52533.69;5113582;28;19929;-69
2023/10/25 07:32:03;;;;;;;;;;;;;;;-144.99;100.00;52482.75;5123068;28;19912;-71
2023/10/25 07:34:29;;;;;;;;;;;;;;;-144.99;100.00;52474.59;5127258;28;19911;-70
2023/10/25 07:36:56;;;;;;;;;;;;;;;-144.99;100.00;52472.56;5104255;28;19932;-70
2023/10/25 07:39:24;;;;;;;;;;;;;;;-144.99;100.00;52497.00;5118770;28;19950;-71
2023/10/25 07:41:50;;;;;;;;;;;;;;;-144.99;100.00;52501.09;5118792;28;19958;-73
2023/10/25 07:44:17;;;;;;;;;;;;;;;-144.99;100.00;52468.47;5100080;28;19924;-71
2023/10/25 07:46:43;;;;;;;;;;;;;;;-144.99;100.00;52464.41;5124868;28;19925;-71
2023/10/25 07:49:10;;;;;;;;;;;;;;;-144.99;100.00;52441.97;5120890;28;19920;-70
2023/10/25 07:51:37;;;;;;;;;;;;;;;-144.99;100.00;52509.25;5116401;28;19932;-71
2023/10/25 07:54:03;;;;;;;;;;;;;;;-144.99;100.00;52509.25;5117840;28;19935;-71
2023/10/25 07:56:31;;;;;;;;;;;;;;;-144.99;100.00;52427.72;5109396;28;19950;-71
2023/10/25 07:58:58;;;;;;;;;;;;;;;-144.99;100.00;52458.28;5104266;28;19931;-70
2023/10/25 08:01:24;;;;;;;;;;;;;;;-144.99;100.00;52492.94;5119156;28;20386;-71
2023/10/25 08:03:51;;;;;;;;;;;;;;;-144.99;100.00;52480.72;5108357;28;19928;-70
2023/10/25 08:06:18;;;;;;;;;;;;;;;-144.99;100.00;52523.50;5119066;28;19927;-71
2023/10/25 08:08:44;;;;;;;;;;;;;;;-144.99;100.00;52474.59;5114756;28;19939;-71
2023/10/25 08:11:11;;;;;;;;;;;;;;;-144.99;100.00;52456.25;5118030;27;19995;-71
2023/10/25 08:13:40;;;;;;;;;;;;;;;-144.99;100.00;52458.28;5115047;27;19924;-71
2023/10/25 08:16:06;;;;;;;;;;;;;;;-144.99;100.00;52462.34;5107832;28;19932;-71
2023/10/25 08:18:33;;;;;;;;;;;;;;;-144.99;100.00;52435.88;5117721;28;19923;-71
2023/10/25 08:21:00;;;;;;;;;;;;;;;-144.99;100.00;52448.09;5114756;28;19992;-71
2023/10/25 08:23:26;;;;;;;;;;;;;;;-144.99;100.00;52456.25;5105688;28;19928;-69
2023/10/25 08:25:53;;;;;;;;;;;;;;;-144.99;100.00;52433.81;5104740;28;19927;-70
2023/10/25 08:28:19;;;;;;;;;;;;;;;-144.99;100.00;52456.25;5105508;28;20313;-70
2023/10/25 08:30:47;;;;;;;;;;;;;;;-144.99;99.99;52444.03;5101156;28;19927;-70
2023/10/25 08:33:14;;;;;;;;;;;;;;;-144.99;100.00;52441.97;5098148;28;19928;-70
2023/10/25 08:35:40;;;;;;;;;;;;;;;-144.99;99.58;52433.81;5099437;28;19959;-70
2023/10/25 08:38:07;;;;;;;;;;;;;;;-144.99;99.60;52458.28;5103635;28;19963;-70
2023/10/25 08:40:33;;;;;;;;;;;;;;;-144.99;97.19;52476.63;5108578;27;19978;-70
2023/10/25 08:43:01;;;;;;;;;;;;;;;-144.99;97.12;52488.84;5103190;27;19925;-70
2023/10/25 08:45:28;;;;;;;;;;;;;;;-144.99;96.28;52472.56;5100160;28;20097;-69
2023/10/25 08:47:56;;;;;;;;;;;;;;;-144.99;95.31;52460.31;5101181;27;19930;-70
2023/10/25 08:50:23;;;;;;;;;;;;;;;-144.99;94.53;52452.16;5096899;28;19974;-70
2023/10/25 08:52:50;;;;;;;;;;;;;;;-144.99;92.66;52425.66;5111213;27;19984;-70
2023/10/25 08:55:18;;;;;;;;;;;;;;;-144.99;91.29;52415.47;5103940;28;19964;-70
2023/10/25 08:57:45;;;;;;;;;;;;;;;-144.99;89.30;52484.78;5096288;28;19973;-70
2023/10/25 09:00:12;;;;;;;;;;;;;;;-144.99;88.89;52423.63;5109326;28;20296;-70
2023/10/25 09:02:39;;;;;;;;;;;;;;;-144.99;89.59;52470.50;5106230;28;20020;-70
2023/10/25 09:05:07;;;;;;;;;;;;;;;-144.99;88.28;52456.25;5086421;28;20285;-71
2023/10/25 09:07:35;;;;;;;;;;;;;;;-144.99;89.60;52441.97;5109214;28;19923;-70
2023/10/25 09:10:03;;;;;;;;;;;;;;;-144.99;88.16;52452.16;5110003;28;19924;-70
2023/10/25 09:12:29;;;;;;;;;;;;;;;-144.99;86.25;52452.16;5109642;28;19957;-70
2023/10/25 09:14:56;;;;;;;;;;;;;;;-144.99;88.33;52433.81;5109072;28;20412;-70
2023/10/25 09:17:22;;;;;;;;;;;;;;;-144.99;87.45;52472.56;5098730;28;20005;-70
2023/10/25 09:19:50;;;;;;;;;;;;;;;-144.99;85.59;52423.63;5102896;27;19992;-70
2023/10/25 09:22:25;;;;;;;;;;;;;;;-144.99;84.83;52413.44;5109871;28;19987;-70
2023/10/25 09:24:52;;;;;;;;;;;;;;;-144.99;82.83;52407.31;5097212;28;20300;-70
2023/10/25 09:27:19;;;;;;;;;;;;;;;-144.99;82.51;52423.63;5100369;28;19975;-70
2023/10/25 09:29:46;;;;;;;;;;;;;;;-144.99;80.75;52397.13;5100684;28;19934;-70
2023/10/25 09:32:12;;;;;;;;;;;;;;;-144.99;77.67;52370.63;5108015;28;20470;-71
2023/10/25 09:34:39;;;;;;;;;;;;;;;-144.99;76.23;52382.88;5120265;28;19923;-72
2023/10/25 09:37:07;;;;;;;;;;;;;;;-144.99;74.67;52366.56;5106748;28;19923;-71
2023/10/25 09:39:36;;;;;;;;;;;;;;;-144.99;73.20;52333.94;5106422;28;19924;-72
2023/10/25 09:42:03;;;;;;;;;;;;;;;-144.99;71.39;52342.09;5094948;28;19928;-70
2023/10/25 09:44:37;;;;;;;;;;;;;;;-144.99;70.92;52338.03;5101222;28;20211;-70
2023/10/25 09:47:05;;;;;;;;;;;;;;;-144.99;70.33;52346.19;5090233;28;20352;-72
2023/10/25 09:49:33;;;;;;;;;;;;;;;-144.99;70.85;52362.50;5089956;28;19980;-71
2023/10/25 09:52:05;;;;;;;;;;;;;;;-144.99;68.95;52374.72;5102009;28;19981;-72
2023/10/25 09:54:33;;;;;;;;;;;;;;;-144.99;68.04;52358.41;5105182;28;20023;-72
2023/10/25 09:57:02;;;;;;;;;;;;;;;-144.99;67.44;52329.88;5107811;28;20014;-70
2023/10/25 09:59:30;;;;;;;;;;;;;;;-144.99;66.63;52309.50;5106324;28;19927;-70
2023/10/25 10:01:57;;;;;;;;;;;;;;;-144.99;65.68;52315.59;5104214;28;19974;-70
2023/10/25 10:04:28;;;;;;;;;;;;;;;-144.99;65.36;52317.66;5104176;28;20195;-70
2023/10/25 10:07:08;;;;;;;;;;;;;;;-144.99;65.05;52309.50;5093673;28;19924;-70
2023/10/25 10:09:37;;;;;;;;;;;;;;;-144.99;64.52;52289.13;5101270;28;20011;-70
2023/10/25 10:12:06;;;;;;;;;;;;;;;-144.99;64.66;52305.41;5104609;27;19971;-71
2023/10/25 10:14:33;;;;;;;;;;;;;;;-144.99;64.02;52297.25;5103931;28;19974;-71
2023/10/25 10:17:03;;;;;;;;;;;;;;;-144.99;62.78;52199.44;5094939;28;20694;-71
2023/10/25 10:19:31;;;;;;;;;;;;;;;-144.99;62.47;52219.81;5099729;28;20054;-71
2023/10/25 10:22:04;;;;;;;;;;;;;;;-144.99;61.29;52248.34;5095790;28;19999;-71
2023/10/25 10:24:40;;;;;;;;;;;;;;;-144.99;60.91;52232.03;5098113;28;19928;-71
2023/10/25 10:27:08;;;;;;;;;;;;;;;-144.99;59.69;52250.38;5099668;28;19931;-70
2023/10/25 10:29:39;;;;;;;;;;;;;;;-144.99;60.89;52254.47;5097644;28;20050;-72
2023/10/25 10:32:06;;;;;;;;;;;;;;;-144.99;60.32;52293.19;5102748;28;20019;-70
2023/10/25 10:34:38;;;;;;;;;;;;;;;-144.99;60.60;52280.97;5107266;28;19936;-71
2023/10/25 10:37:08;;;;;;;;;;;;;;;-144.99;61.40;52313.56;5106753;28;19972;-71
2023/10/25 10:39:35;;;;;;;;;;;;;;;-144.99;61.93;52325.81;5105463;28;20031;-71
2023/10/25 10:42:02;;;;;;;;;;;;;;;-144.99;62.38;52360.44;5105344;28;20376;-71
2023/10/25 10:44:30;;;;;;;;;;;;;;;-144.99;63.06;52350.25;5106098;28;19935;-70
2023/10/25 10:46:59;;;;;;;;;;;;;;;-144.99;63.75;52384.91;5105678;28;20026;-71
2023/10/25 10:49:29;;;;;;;;;;;;;;;-144.99;64.20;52333.94;5090978;28;20010;-71
2023/10/25 10:51:56;;;;;;;;;;;;;;;-144.99;64.39;52317.66;5109423;28;20000;-71
2023/10/25 10:54:22;;;;;;;;;;;;;;;-144.99;64.94;52338.03;5098657;28;20291;-72
2023/10/25 10:56:49;;;;;;;;;;;;;;;-144.99;64.43;52362.50;5088230;28;19936;-71
2023/10/25 10:59:16;;;;;;;;;;;;;;;-144.99;64.18;52370.63;5107088;28;19936;-71
2023/10/25 11:01:45;;;;;;;;;;;;;;;-144.99;64.97;52370.63;5103098;28;19932;-71
2023/10/25 11:04:11;;;;;;;;;;;;;;;-144.99;67.08;52407.31;5102457;28;20050;-70
2023/10/25 11:06:39;;;;;;;;;;;;;;;-144.99;67.34;52423.63;5099978;28;19928;-71
2023/10/25 11:09:08;;;;;;;;;;;;;;;-144.99;67.05;52397.13;5107532;28;19939;-71
2023/10/25 11:11:35;;;;;;;;;;;;;;;-144.99;66.50;52423.63;5105166;28;19982;-71
2023/10/25 11:14:01;;;;;;;;;;;;;;;-144.99;66.60;52380.84;5107896;28;20296;-70
2023/10/25 11:16:29;;;;;;;;;;;;;;;-144.99;66.80;52374.72;5093157;28;20015;-71
2023/10/25 11:19:07;;;;;;;;;;;;;;;-144.99;67.14;52450.13;5105893;28;20361;-71
2023/10/25 11:21:33;;;;;;;;;;;;;;;-144.99;68.38;52452.16;5102580;28;19931;-71
2023/10/25 11:24:03;;;;;;;;;;;;;;;-144.99;68.89;52429.75;5105228;28;19985;-72
2023/10/25 11:26:30;;;;;;;;;;;;;;;-144.99;69.94;52458.28;5088811;28;20384;-71
2023/10/25 11:28:56;;;;;;;;;;;;;;;-144.99;69.84;52431.78;5107795;28;19978;-71
2023/10/25 11:31:23;;;;;;;;;;;;;;;-144.99;69.87;52466.44;5107998;28;20002;-70
2023/10/25 11:33:49;;;;;;;;;;;;;;;-144.99;70.18;52476.63;5108075;28;19994;-71
2023/10/25 11:36:18;;;;;;;;;;;;;;;-144.99;70.75;52456.25;5102846;28;20440;-70
2023/10/25 11:38:45;;;;;;;;;;;;;;;-144.99;71.30;52427.72;5087400;28;19927;-70
2023/10/25 11:41:11;;;;;;;;;;;;;;;-144.99;71.48;52427.72;5111196;28;19932;-70
2023/10/25 11:43:38;;;;;;;;;;;;;;;-144.99;71.58;52415.47;5111292;28;19927;-70
2023/10/25 11:46:05;;;;;;;;;;;;;;;-144.99;71.61;52370.63;5110993;28;19969;-72
2023/10/25 11:48:33;;;;;;;;;;;;;;;-144.99;69.16;52350.25;5110028;27;19932;-71
2023/10/25 11:51:00;;;;;;;;;;;;;;;-144.99;67.91;52368.59;5104483;28;20026;-70
2023/10/25 11:53:28;;;;;;;;;;;;;;;-144.99;66.79;52348.22;5098027;28;19975;-70
2023/10/25 11:55:58;;;;;;;;;;;;;;;-144.99;66.05;52289.13;5103355;28;20019;-70
2023/10/25 11:58:25;;;;;;;;;;;;;;;-144.99;64.38;52307.47;5096802;28;19935;-72
2023/10/25 12:00:51;;;;;;;;;;;;;;;-144.99;62.72;52283.00;5104788;28;20418;-72
2023/10/25 12:03:18;;;;;;;;;;;;;;;-144.99;62.69;52240.19;5094324;28;19971;-70
2023/10/25 12:05:44;;;;;;;;;;;;;;;-144.99;61.52;52250.38;5102095;28;19927;-70
2023/10/25 12:08:10;;;;;;;;;;;;;;;-144.99;61.24;52195.34;5103743;28;19968;-71
2023/10/25 12:10:38;;;;;;;;;;;;;;;-144.99;59.99;52227.97;5103447;28;19989;-70
2023/10/25 12:13:05;;;;;;;;;;;;;;;-144.99;59.55;52187.19;5098780;28;20018;-71
2023/10/25 12:15:31;;;;;;;;;;;;;;;-144.99;59.13;52199.44;5101403;28;20005;-70
2023/10/25 12:17:58;;;;;;;;;;;;;;;-144.99;58.06;52121.97;5096332;28;20418;-72
2023/10/25 12:20:26;;;;;;;;;;;;;;;-144.99;56.75;52134.22;5102855;28;20006;-71
2023/10/25 12:22:52;;;;;;;;;;;;;;;-144.99;55.51;52119.94;5100445;28;19924;-71